sensor_id;sensor_type;location;lat;lon;timestamp;P1;durP1;ratioP1;P2;durP2;ratioP2
20679;SDS011;10499;47.494;7.608;2022-12-18T00:01:56;0.40;;;0.40;;
20679;SDS011;10499;47.494;7.608;2022-12-18T00:04:24;0.40;;;0.40;;
20679;SDS011;10499;47.494;7.608;2022-12-18T00:06:51;0.50;;;0.50;;
20679;SDS011;10499;47.494;7.608;2022-12-18T00:09:17;0.47;;;0.47;;
20679;SDS011;10499;47.494;7.608;2022-12-18T00:11:42;0.40;;;0.40;;
20679;SDS011;10499;47.494;7.608;2022-12-18T00:14:08;0.40;;;0.40;;
20679;SDS011;10499;47.494;7.608;2022-12-18T00:16:36;0.50;;;0.50;;
20679;SDS011;10499;47.494;7.608;2022-12-18T00:19:02;0.40;;;0.40;;
20679;SDS011;10499;47.494;7.608;2022-12-18T00:21:29;0.47;;;0.47;;
20679;SDS011;10499;47.494;7.608;2022-12-18T00:23:56;0.50;;;0.50;;
20679;SDS011;10499;47.494;7.608;2022-12-18T00:26:23;0.40;;;0.40;;
20679;SDS011;10499;47.494;7.608;2022-12-18T00:28:53;0.50;;;0.50;;
20679;SDS011;10499;47.494;7.608;2022-12-18T00:31:21;0.40;;;0.40;;
20679;SDS011;10499;47.494;7.608;2022-12-18T00:33:48;0.40;;;0.40;;
20679;SDS011;10499;47.494;7.608;2022-12-18T00:36:16;0.50;;;0.50;;
20679;SDS011;10499;47.494;7.608;2022-12-18T00:38:43;0.40;;;0.40;;
20679;SDS011;10499;47.494;7.608;2022-12-18T00:41:10;0.50;;;0.50;;
20679;SDS011;10499;47.494;7.608;2022-12-18T00:43:37;0.40;;;0.40;;
20679;SDS011;10499;47.494;7.608;2022-12-18T00:46:03;0.40;;;0.40;;
20679;SDS011;10499;47.494;7.608;2022-12-18T00:48:29;0.40;;;0.40;;
20679;SDS011;10499;47.494;7.608;2022-12-18T00:50:55;0.50;;;0.50;;
20679;SDS011;10499;47.494;7.608;2022-12-18T00:53:21;0.50;;;0.50;;
20679;SDS011;10499;47.494;7.608;2022-12-18T00:55:46;0.43;;;0.43;;
20679;SDS011;10499;47.494;7.608;2022-12-18T00:58:13;0.50;;;0.50;;
20679;SDS011;10499;47.494;7.608;2022-12-18T01:00:40;0.50;;;0.50;;
20679;SDS011;10499;47.494;7.608;2022-12-18T01:03:07;0.40;;;0.40;;
20679;SDS011;10499;47.494;7.608;2022-12-18T01:05:32;0.50;;;0.50;;
20679;SDS011;10499;47.494;7.608;2022-12-18T01:07:59;0.40;;;0.40;;
20679;SDS011;10499;47.494;7.608;2022-12-18T01:10:25;0.50;;;0.50;;
20679;SDS011;10499;47.494;7.608;2022-12-18T01:12:50;0.50;;;0.50;;
20679;SDS011;10499;47.494;7.608;2022-12-18T01:15:16;0.40;;;0.40;;
20679;SDS011;10499;47.494;7.608;2022-12-18T01:17:43;0.50;;;0.50;;
20679;SDS011;10499;47.494;7.608;2022-12-18T01:20:09;0.40;;;0.40;;
20679;SDS011;10499;47.494;7.608;2022-12-18T01:22:36;0.40;;;0.40;;
20679;SDS011;10499;47.494;7.608;2022-12-18T01:25:02;0.50;;;0.50;;
20679;SDS011;10499;47.494;7.608;2022-12-18T01:27:29;0.50;;;0.50;;
20679;SDS011;10499;47.494;7.608;2022-12-18T01:29:55;0.50;;;0.50;;
20679;SDS011;10499;47.494;7.608;2022-12-18T01:32:20;0.50;;;0.50;;
20679;SDS011;10499;47.494;7.608;2022-12-18T01:34:46;0.43;;;0.43;;
20679;SDS011;10499;47.494;7.608;2022-12-18T01:37:12;0.50;;;0.50;;
20679;SDS011;10499;47.494;7.608;2022-12-18T01:39:38;0.50;;;0.50;;
20679;SDS011;10499;47.494;7.608;2022-12-18T01:42:05;0.40;;;0.40;;
20679;SDS011;10499;47.494;7.608;2022-12-18T01:49:55;0.50;;;0.50;;
20679;SDS011;10499;47.494;7.608;2022-12-18T01:52:23;0.47;;;0.47;;
20679;SDS011;10499;47.494;7.608;2022-12-18T01:54:52;0.40;;;0.40;;
20679;SDS011;10499;47.494;7.608;2022-12-18T01:57:18;0.50;;;0.50;;
20679;SDS011;10499;47.494;7.608;2022-12-18T01:59:45;0.50;;;0.50;;
20679;SDS011;10499;47.494;7.608;2022-12-18T02:02:14;0.40;;;0.40;;
20679;SDS011;10499;47.494;7.608;2022-12-18T02:04:41;0.50;;;0.50;;
20679;SDS011;10499;47.494;7.608;2022-12-18T02:07:10;0.50;;;0.50;;
20679;SDS011;10499;47.494;7.608;2022-12-18T02:09:45;0.40;;;0.40;;
20679;SDS011;10499;47.494;7.608;2022-12-18T02:12:19;0.50;;;0.50;;
20679;SDS011;10499;47.494;7.608;2022-12-18T02:17:21;0.50;;;0.50;;
20679;SDS011;10499;47.494;7.608;2022-12-18T02:19:58;0.50;;;0.50;;
20679;SDS011;10499;47.494;7.608;2022-12-18T02:28:02;0.50;;;0.50;;
20679;SDS011;10499;47.494;7.608;2022-12-18T02:30:31;0.50;;;0.50;;
20679;SDS011;10499;47.494;7.608;2022-12-18T02:32:59;0.43;;;0.43;;
20679;SDS011;10499;47.494;7.608;2022-12-18T02:35:29;0.47;;;0.47;;
20679;SDS011;10499;47.494;7.608;2022-12-18T02:37:55;0.50;;;0.50;;
20679;SDS011;10499;47.494;7.608;2022-12-18T02:40:23;0.50;;;0.50;;
20679;SDS011;10499;47.494;7.608;2022-12-18T02:42:51;0.50;;;0.50;;
20679;SDS011;10499;47.494;7.608;2022-12-18T02:45:17;0.50;;;0.50;;
20679;SDS011;10499;47.494;7.608;2022-12-18T02:47:43;0.50;;;0.50;;
20679;SDS011;10499;47.494;7.608;2022-12-18T02:53:09;0.43;;;0.43;;
20679;SDS011;10499;47.494;7.608;2022-12-18T02:58:20;0.50;;;0.50;;
20679;SDS011;10499;47.494;7.608;2022-12-18T03:01:18;0.50;;;0.50;;
20679;SDS011;10499;47.494;7.608;2022-12-18T03:06:23;0.50;;;0.50;;
20679;SDS011;10499;47.494;7.608;2022-12-18T03:09:28;0.50;;;0.50;;
20679;SDS011;10499;47.494;7.608;2022-12-18T03:12:19;0.50;;;0.50;;
20679;SDS011;10499;47.494;7.608;2022-12-18T03:15:02;0.50;;;0.50;;
20679;SDS011;10499;47.494;7.608;2022-12-18T03:17:29;0.50;;;0.50;;
20679;SDS011;10499;47.494;7.608;2022-12-18T03:19:58;0.50;;;0.50;;
20679;SDS011;10499;47.494;7.608;2022-12-18T03:22:28;0.50;;;0.50;;
20679;SDS011;10499;47.494;7.608;2022-12-18T03:24:57;0.50;;;0.50;;
20679;SDS011;10499;47.494;7.608;2022-12-18T03:27:26;0.50;;;0.50;;
20679;SDS011;10499;47.494;7.608;2022-12-18T03:30:07;0.50;;;0.50;;
20679;SDS011;10499;47.494;7.608;2022-12-18T03:32:43;0.50;;;0.50;;
20679;SDS011;10499;47.494;7.608;2022-12-18T03:35:24;0.50;;;0.50;;
20679;SDS011;10499;47.494;7.608;2022-12-18T03:37:53;0.50;;;0.50;;
20679;SDS011;10499;47.494;7.608;2022-12-18T03:40:20;0.50;;;0.50;;
20679;SDS011;10499;47.494;7.608;2022-12-18T03:42:52;0.50;;;0.50;;
20679;SDS011;10499;47.494;7.608;2022-12-18T03:45:32;0.50;;;0.50;;
20679;SDS011;10499;47.494;7.608;2022-12-18T03:48:07;0.50;;;0.50;;
20679;SDS011;10499;47.494;7.608;2022-12-18T03:50:36;0.50;;;0.50;;
20679;SDS011;10499;47.494;7.608;2022-12-18T03:55:57;0.50;;;0.50;;
20679;SDS011;10499;47.494;7.608;2022-12-18T03:58:25;0.50;;;0.50;;
20679;SDS011;10499;47.494;7.608;2022-12-18T04:00:54;0.50;;;0.50;;
20679;SDS011;10499;47.494;7.608;2022-12-18T04:03:24;0.50;;;0.50;;
20679;SDS011;10499;47.494;7.608;2022-12-18T04:05:53;0.50;;;0.50;;
20679;SDS011;10499;47.494;7.608;2022-12-18T04:08:20;0.50;;;0.50;;
20679;SDS011;10499;47.494;7.608;2022-12-18T04:10:47;0.50;;;0.50;;
20679;SDS011;10499;47.494;7.608;2022-12-18T04:13:20;0.50;;;0.50;;
20679;SDS011;10499;47.494;7.608;2022-12-18T04:15:47;0.50;;;0.50;;
20679;SDS011;10499;47.494;7.608;2022-12-18T04:18:13;0.50;;;0.50;;
20679;SDS011;10499;47.494;7.608;2022-12-18T04:20:38;0.50;;;0.50;;
20679;SDS011;10499;47.494;7.608;2022-12-18T04:23:04;0.50;;;0.50;;
20679;SDS011;10499;47.494;7.608;2022-12-18T04:25:30;0.50;;;0.50;;
20679;SDS011;10499;47.494;7.608;2022-12-18T04:27:55;0.50;;;0.50;;
20679;SDS011;10499;47.494;7.608;2022-12-18T04:30:21;0.60;;;0.60;;
20679;SDS011;10499;47.494;7.608;2022-12-18T04:32:46;0.50;;;0.50;;
20679;SDS011;10499;47.494;7.608;2022-12-18T04:35:12;0.50;;;0.50;;
20679;SDS011;10499;47.494;7.608;2022-12-18T04:37:37;0.50;;;0.50;;
20679;SDS011;10499;47.494;7.608;2022-12-18T04:40:03;0.50;;;0.50;;
20679;SDS011;10499;47.494;7.608;2022-12-18T04:42:29;0.50;;;0.50;;
20679;SDS011;10499;47.494;7.608;2022-12-18T04:44:55;0.50;;;0.50;;
20679;SDS011;10499;47.494;7.608;2022-12-18T04:47:20;0.50;;;0.50;;
20679;SDS011;10499;47.494;7.608;2022-12-18T04:49:46;0.60;;;0.60;;
20679;SDS011;10499;47.494;7.608;2022-12-18T04:52:12;0.50;;;0.50;;
20679;SDS011;10499;47.494;7.608;2022-12-18T04:54:37;0.50;;;0.50;;
20679;SDS011;10499;47.494;7.608;2022-12-18T04:57:03;0.50;;;0.50;;
20679;SDS011;10499;47.494;7.608;2022-12-18T04:59:28;0.50;;;0.50;;
20679;SDS011;10499;47.494;7.608;2022-12-18T05:01:54;0.50;;;0.50;;
20679;SDS011;10499;47.494;7.608;2022-12-18T05:04:20;0.50;;;0.50;;
20679;SDS011;10499;47.494;7.608;2022-12-18T05:06:45;0.50;;;0.50;;
20679;SDS011;10499;47.494;7.608;2022-12-18T05:09:11;0.50;;;0.50;;
20679;SDS011;10499;47.494;7.608;2022-12-18T05:11:37;0.60;;;0.60;;
20679;SDS011;10499;47.494;7.608;2022-12-18T05:14:02;0.50;;;0.50;;
20679;SDS011;10499;47.494;7.608;2022-12-18T05:16:28;0.50;;;0.50;;
20679;SDS011;10499;47.494;7.608;2022-12-18T05:18:53;0.50;;;0.50;;
20679;SDS011;10499;47.494;7.608;2022-12-18T05:21:19;0.50;;;0.50;;
20679;SDS011;10499;47.494;7.608;2022-12-18T05:23:45;0.50;;;0.50;;
20679;SDS011;10499;47.494;7.608;2022-12-18T05:26:14;0.50;;;0.50;;
20679;SDS011;10499;47.494;7.608;2022-12-18T05:28:42;0.50;;;0.50;;
20679;SDS011;10499;47.494;7.608;2022-12-18T05:31:07;0.50;;;0.50;;
20679;SDS011;10499;47.494;7.608;2022-12-18T05:33:34;0.50;;;0.50;;
20679;SDS011;10499;47.494;7.608;2022-12-18T05:36:01;0.50;;;0.50;;
20679;SDS011;10499;47.494;7.608;2022-12-18T05:38:29;0.50;;;0.50;;
20679;SDS011;10499;47.494;7.608;2022-12-18T05:40:56;0.50;;;0.50;;
20679;SDS011;10499;47.494;7.608;2022-12-18T05:43:23;0.50;;;0.50;;
20679;SDS011;10499;47.494;7.608;2022-12-18T05:45:49;0.57;;;0.57;;
20679;SDS011;10499;47.494;7.608;2022-12-18T05:48:16;0.50;;;0.50;;
20679;SDS011;10499;47.494;7.608;2022-12-18T05:50:44;0.60;;;0.60;;
20679;SDS011;10499;47.494;7.608;2022-12-18T05:53:10;0.50;;;0.50;;
20679;SDS011;10499;47.494;7.608;2022-12-18T05:55:37;0.50;;;0.50;;
20679;SDS011;10499;47.494;7.608;2022-12-18T05:58:06;0.50;;;0.50;;
20679;SDS011;10499;47.494;7.608;2022-12-18T06:00:34;0.60;;;0.60;;
20679;SDS011;10499;47.494;7.608;2022-12-18T06:03:04;0.60;;;0.60;;
20679;SDS011;10499;47.494;7.608;2022-12-18T06:05:35;0.60;;;0.60;;
20679;SDS011;10499;47.494;7.608;2022-12-18T06:08:02;0.60;;;0.60;;
20679;SDS011;10499;47.494;7.608;2022-12-18T06:10:28;0.57;;;0.57;;
20679;SDS011;10499;47.494;7.608;2022-12-18T06:12:53;0.50;;;0.50;;
20679;SDS011;10499;47.494;7.608;2022-12-18T06:15:19;0.50;;;0.50;;
20679;SDS011;10499;47.494;7.608;2022-12-18T06:17:44;0.50;;;0.50;;
20679;SDS011;10499;47.494;7.608;2022-12-18T06:20:10;0.50;;;0.50;;
20679;SDS011;10499;47.494;7.608;2022-12-18T06:22:36;0.50;;;0.50;;
20679;SDS011;10499;47.494;7.608;2022-12-18T06:25:01;0.50;;;0.50;;
20679;SDS011;10499;47.494;7.608;2022-12-18T06:27:27;0.50;;;0.50;;
20679;SDS011;10499;47.494;7.608;2022-12-18T06:29:53;0.50;;;0.50;;
20679;SDS011;10499;47.494;7.608;2022-12-18T06:32:18;0.50;;;0.50;;
20679;SDS011;10499;47.494;7.608;2022-12-18T06:34:44;0.50;;;0.50;;
20679;SDS011;10499;47.494;7.608;2022-12-18T06:37:09;0.50;;;0.50;;
20679;SDS011;10499;47.494;7.608;2022-12-18T06:39:35;0.50;;;0.50;;
20679;SDS011;10499;47.494;7.608;2022-12-18T06:42:01;0.50;;;0.50;;
20679;SDS011;10499;47.494;7.608;2022-12-18T06:44:26;0.50;;;0.50;;
20679;SDS011;10499;47.494;7.608;2022-12-18T06:46:52;0.50;;;0.50;;
20679;SDS011;10499;47.494;7.608;2022-12-18T06:49:17;0.50;;;0.50;;
20679;SDS011;10499;47.494;7.608;2022-12-18T06:51:43;0.50;;;0.50;;
20679;SDS011;10499;47.494;7.608;2022-12-18T06:54:09;0.50;;;0.50;;
20679;SDS011;10499;47.494;7.608;2022-12-18T06:56:34;0.50;;;0.50;;
20679;SDS011;10499;47.494;7.608;2022-12-18T06:59:00;0.50;;;0.50;;
20679;SDS011;10499;47.494;7.608;2022-12-18T07:01:25;0.50;;;0.50;;
20679;SDS011;10499;47.494;7.608;2022-12-18T07:03:55;0.50;;;0.50;;
20679;SDS011;10499;47.494;7.608;2022-12-18T07:06:22;0.50;;;0.50;;
20679;SDS011;10499;47.494;7.608;2022-12-18T07:08:51;0.50;;;0.50;;
20679;SDS011;10499;47.494;7.608;2022-12-18T07:11:17;0.50;;;0.50;;
20679;SDS011;10499;47.494;7.608;2022-12-18T07:13:44;0.50;;;0.50;;
20679;SDS011;10499;47.494;7.608;2022-12-18T07:16:12;0.50;;;0.50;;
20679;SDS011;10499;47.494;7.608;2022-12-18T07:18:39;0.50;;;0.50;;
20679;SDS011;10499;47.494;7.608;2022-12-18T07:21:06;0.50;;;0.50;;
20679;SDS011;10499;47.494;7.608;2022-12-18T07:23:34;0.50;;;0.50;;
20679;SDS011;10499;47.494;7.608;2022-12-18T07:26:01;0.50;;;0.50;;
20679;SDS011;10499;47.494;7.608;2022-12-18T07:28:35;0.50;;;0.50;;
20679;SDS011;10499;47.494;7.608;2022-12-18T07:31:05;0.50;;;0.50;;
20679;SDS011;10499;47.494;7.608;2022-12-18T07:33:32;0.50;;;0.50;;
20679;SDS011;10499;47.494;7.608;2022-12-18T07:35:59;0.50;;;0.50;;
20679;SDS011;10499;47.494;7.608;2022-12-18T07:38:28;0.50;;;0.50;;
20679;SDS011;10499;47.494;7.608;2022-12-18T07:40:59;0.50;;;0.50;;
20679;SDS011;10499;47.494;7.608;2022-12-18T07:43:25;0.50;;;0.50;;
20679;SDS011;10499;47.494;7.608;2022-12-18T07:45:51;0.50;;;0.50;;
20679;SDS011;10499;47.494;7.608;2022-12-18T07:48:17;0.50;;;0.50;;
20679;SDS011;10499;47.494;7.608;2022-12-18T07:50:42;0.50;;;0.50;;
20679;SDS011;10499;47.494;7.608;2022-12-18T07:53:08;0.50;;;0.50;;
20679;SDS011;10499;47.494;7.608;2022-12-18T07:55:33;0.50;;;0.50;;
20679;SDS011;10499;47.494;7.608;2022-12-18T07:58:03;0.50;;;0.50;;
20679;SDS011;10499;47.494;7.608;2022-12-18T08:00:30;0.50;;;0.50;;
20679;SDS011;10499;47.494;7.608;2022-12-18T08:02:55;0.50;;;0.50;;
20679;SDS011;10499;47.494;7.608;2022-12-18T08:05:21;0.50;;;0.50;;
20679;SDS011;10499;47.494;7.608;2022-12-18T08:07:47;0.50;;;0.50;;
20679;SDS011;10499;47.494;7.608;2022-12-18T08:10:14;0.50;;;0.50;;
20679;SDS011;10499;47.494;7.608;2022-12-18T08:12:39;0.40;;;0.40;;
20679;SDS011;10499;47.494;7.608;2022-12-18T08:15:05;0.40;;;0.40;;
20679;SDS011;10499;47.494;7.608;2022-12-18T08:17:31;0.40;;;0.40;;
20679;SDS011;10499;47.494;7.608;2022-12-18T08:19:57;0.30;;;0.30;;
20679;SDS011;10499;47.494;7.608;2022-12-18T08:22:23;0.30;;;0.30;;
20679;SDS011;10499;47.494;7.608;2022-12-18T08:24:48;0.30;;;0.30;;
20679;SDS011;10499;47.494;7.608;2022-12-18T08:27:14;0.30;;;0.30;;
20679;SDS011;10499;47.494;7.608;2022-12-18T08:29:39;0.30;;;0.30;;
20679;SDS011;10499;47.494;7.608;2022-12-18T08:32:05;0.30;;;0.30;;
20679;SDS011;10499;47.494;7.608;2022-12-18T08:34:31;0.20;;;0.20;;
20679;SDS011;10499;47.494;7.608;2022-12-18T08:36:56;0.30;;;0.30;;
20679;SDS011;10499;47.494;7.608;2022-12-18T08:39:22;0.20;;;0.20;;
20679;SDS011;10499;47.494;7.608;2022-12-18T08:41:48;0.20;;;0.20;;
20679;SDS011;10499;47.494;7.608;2022-12-18T08:44:33;0.20;;;0.20;;
20679;SDS011;10499;47.494;7.608;2022-12-18T08:47:06;0.20;;;0.20;;
20679;SDS011;10499;47.494;7.608;2022-12-18T08:49:33;0.20;;;0.20;;
20679;SDS011;10499;47.494;7.608;2022-12-18T08:51:59;0.20;;;0.20;;
20679;SDS011;10499;47.494;7.608;2022-12-18T08:54:25;0.20;;;0.20;;
20679;SDS011;10499;47.494;7.608;2022-12-18T08:56:51;0.20;;;0.20;;
20679;SDS011;10499;47.494;7.608;2022-12-18T08:59:17;0.20;;;0.20;;
20679;SDS011;10499;47.494;7.608;2022-12-18T09:01:43;0.20;;;0.20;;
20679;SDS011;10499;47.494;7.608;2022-12-18T09:04:10;0.30;;;0.30;;
20679;SDS011;10499;47.494;7.608;2022-12-18T09:06:36;0.30;;;0.30;;
20679;SDS011;10499;47.494;7.608;2022-12-18T09:09:02;0.30;;;0.30;;
20679;SDS011;10499;47.494;7.608;2022-12-18T09:11:30;0.20;;;0.20;;
20679;SDS011;10499;47.494;7.608;2022-12-18T09:13:57;0.20;;;0.20;;
20679;SDS011;10499;47.494;7.608;2022-12-18T09:16:24;0.20;;;0.20;;
20679;SDS011;10499;47.494;7.608;2022-12-18T09:18:50;0.20;;;0.20;;
20679;SDS011;10499;47.494;7.608;2022-12-18T09:21:17;0.20;;;0.20;;
20679;SDS011;10499;47.494;7.608;2022-12-18T09:23:48;0.20;;;0.20;;
20679;SDS011;10499;47.494;7.608;2022-12-18T09:26:15;0.20;;;0.20;;
20679;SDS011;10499;47.494;7.608;2022-12-18T09:28:41;0.20;;;0.20;;
20679;SDS011;10499;47.494;7.608;2022-12-18T09:31:07;0.20;;;0.20;;
20679;SDS011;10499;47.494;7.608;2022-12-18T09:33:36;0.20;;;0.20;;
20679;SDS011;10499;47.494;7.608;2022-12-18T09:36:03;0.20;;;0.20;;
20679;SDS011;10499;47.494;7.608;2022-12-18T09:38:30;0.20;;;0.20;;
20679;SDS011;10499;47.494;7.608;2022-12-18T09:40:58;0.20;;;0.20;;
20679;SDS011;10499;47.494;7.608;2022-12-18T09:43:45;0.20;;;0.20;;
20679;SDS011;10499;47.494;7.608;2022-12-18T09:46:19;0.20;;;0.20;;
20679;SDS011;10499;47.494;7.608;2022-12-18T09:48:51;0.20;;;0.20;;
20679;SDS011;10499;47.494;7.608;2022-12-18T09:51:22;0.20;;;0.20;;
20679;SDS011;10499;47.494;7.608;2022-12-18T09:54:00;0.20;;;0.20;;
20679;SDS011;10499;47.494;7.608;2022-12-18T09:56:28;0.20;;;0.20;;
20679;SDS011;10499;47.494;7.608;2022-12-18T09:59:00;0.20;;;0.20;;
20679;SDS011;10499;47.494;7.608;2022-12-18T10:01:28;0.20;;;0.20;;
20679;SDS011;10499;47.494;7.608;2022-12-18T10:03:55;0.20;;;0.20;;
20679;SDS011;10499;47.494;7.608;2022-12-18T10:23:17;0.10;;;0.10;;
20679;SDS011;10499;47.494;7.608;2022-12-18T10:25:57;0.10;;;0.10;;
20679;SDS011;10499;47.494;7.608;2022-12-18T10:28:35;0.20;;;0.20;;
20679;SDS011;10499;47.494;7.608;2022-12-18T10:31:24;0.20;;;0.20;;
20679;SDS011;10499;47.494;7.608;2022-12-18T10:33:50;0.20;;;0.20;;
20679;SDS011;10499;47.494;7.608;2022-12-18T10:36:16;0.20;;;0.20;;
20679;SDS011;10499;47.494;7.608;2022-12-18T10:38:42;0.20;;;0.20;;
20679;SDS011;10499;47.494;7.608;2022-12-18T10:43:42;0.20;;;0.20;;
20679;SDS011;10499;47.494;7.608;2022-12-18T10:48:34;0.20;;;0.20;;
20679;SDS011;10499;47.494;7.608;2022-12-18T10:51:05;0.20;;;0.20;;
20679;SDS011;10499;47.494;7.608;2022-12-18T10:53:33;0.10;;;0.10;;
20679;SDS011;10499;47.494;7.608;2022-12-18T10:56:02;0.20;;;0.20;;
20679;SDS011;10499;47.494;7.608;2022-12-18T10:58:30;0.10;;;0.10;;
20679;SDS011;10499;47.494;7.608;2022-12-18T11:01:11;0.20;;;0.20;;
20679;SDS011;10499;47.494;7.608;2022-12-18T11:06:12;0.10;;;0.10;;
20679;SDS011;10499;47.494;7.608;2022-12-18T11:08:38;0.20;;;0.20;;
20679;SDS011;10499;47.494;7.608;2022-12-18T11:11:06;0.20;;;0.20;;
20679;SDS011;10499;47.494;7.608;2022-12-18T11:13:54;0.15;;;0.15;;
20679;SDS011;10499;47.494;7.608;2022-12-18T11:16:32;0.10;;;0.10;;
20679;SDS011;10499;47.494;7.608;2022-12-18T11:19:13;0.10;;;0.10;;
20679;SDS011;10499;47.494;7.608;2022-12-18T11:22:17;0.10;;;0.10;;
20679;SDS011;10499;47.494;7.608;2022-12-18T11:24:49;0.20;;;0.20;;
20679;SDS011;10499;47.494;7.608;2022-12-18T11:27:19;0.20;;;0.20;;
20679;SDS011;10499;47.494;7.608;2022-12-18T11:29:44;0.20;;;0.20;;
20679;SDS011;10499;47.494;7.608;2022-12-18T11:38:27;0.20;;;0.20;;
20679;SDS011;10499;47.494;7.608;2022-12-18T11:41:02;0.10;;;0.10;;
20679;SDS011;10499;47.494;7.608;2022-12-18T11:43:44;0.10;;;0.10;;
20679;SDS011;10499;47.494;7.608;2022-12-18T11:49:25;0.15;;;0.15;;
20679;SDS011;10499;47.494;7.608;2022-12-18T11:52:00;0.10;;;0.10;;
20679;SDS011;10499;47.494;7.608;2022-12-18T11:54:42;0.10;;;0.10;;
20679;SDS011;10499;47.494;7.608;2022-12-18T11:57:21;0.10;;;0.10;;
20679;SDS011;10499;47.494;7.608;2022-12-18T12:00:15;0.13;;;0.13;;
20679;SDS011;10499;47.494;7.608;2022-12-18T12:12:09;0.20;;;0.20;;
20679;SDS011;10499;47.494;7.608;2022-12-18T12:19:42;0.20;;;0.20;;
20679;SDS011;10499;47.494;7.608;2022-12-18T12:25:07;0.20;;;0.20;;
20679;SDS011;10499;47.494;7.608;2022-12-18T12:28:08;0.20;;;0.20;;
20679;SDS011;10499;47.494;7.608;2022-12-18T12:30:56;0.20;;;0.20;;
20679;SDS011;10499;47.494;7.608;2022-12-18T12:39:07;0.20;;;0.20;;
20679;SDS011;10499;47.494;7.608;2022-12-18T12:41:42;0.20;;;0.20;;
20679;SDS011;10499;47.494;7.608;2022-12-18T12:44:30;0.20;;;0.20;;
20679;SDS011;10499;47.494;7.608;2022-12-18T12:47:32;0.20;;;0.20;;
20679;SDS011;10499;47.494;7.608;2022-12-18T12:50:02;0.20;;;0.20;;
20679;SDS011;10499;47.494;7.608;2022-12-18T12:52:35;0.20;;;0.20;;
20679;SDS011;10499;47.494;7.608;2022-12-18T12:55:12;0.20;;;0.20;;
20679;SDS011;10499;47.494;7.608;2022-12-18T12:57:46;0.20;;;0.20;;
20679;SDS011;10499;47.494;7.608;2022-12-18T13:00:21;0.20;;;0.20;;
20679;SDS011;10499;47.494;7.608;2022-12-18T13:08:04;0.20;;;0.20;;
20679;SDS011;10499;47.494;7.608;2022-12-18T13:10:39;0.20;;;0.20;;
20679;SDS011;10499;47.494;7.608;2022-12-18T13:13:07;0.20;;;0.20;;
20679;SDS011;10499;47.494;7.608;2022-12-18T13:15:38;0.20;;;0.20;;
20679;SDS011;10499;47.494;7.608;2022-12-18T13:20:35;0.20;;;0.20;;
20679;SDS011;10499;47.494;7.608;2022-12-18T13:31:01;0.20;;;0.20;;
20679;SDS011;10499;47.494;7.608;2022-12-18T13:36:00;0.20;;;0.20;;
20679;SDS011;10499;47.494;7.608;2022-12-18T13:38:34;0.20;;;0.20;;
20679;SDS011;10499;47.494;7.608;2022-12-18T13:46:27;0.20;;;0.20;;
20679;SDS011;10499;47.494;7.608;2022-12-18T13:48:59;0.20;;;0.20;;
20679;SDS011;10499;47.494;7.608;2022-12-18T13:51:31;0.20;;;0.20;;
20679;SDS011;10499;47.494;7.608;2022-12-18T13:57:00;0.20;;;0.20;;
20679;SDS011;10499;47.494;7.608;2022-12-18T13:59:33;0.20;;;0.20;;
20679;SDS011;10499;47.494;7.608;2022-12-18T14:02:05;0.30;;;0.30;;
20679;SDS011;10499;47.494;7.608;2022-12-18T14:04:38;0.30;;;0.30;;
20679;SDS011;10499;47.494;7.608;2022-12-18T14:07:05;0.20;;;0.20;;
20679;SDS011;10499;47.494;7.608;2022-12-18T14:09:36;0.20;;;0.20;;
20679;SDS011;10499;47.494;7.608;2022-12-18T14:12:06;0.30;;;0.30;;
20679;SDS011;10499;47.494;7.608;2022-12-18T14:15:05;0.20;;;0.20;;
20679;SDS011;10499;47.494;7.608;2022-12-18T14:17:42;0.20;;;0.20;;
20679;SDS011;10499;47.494;7.608;2022-12-18T14:20:12;0.30;;;0.30;;
20679;SDS011;10499;47.494;7.608;2022-12-18T14:22:42;0.27;;;0.27;;
20679;SDS011;10499;47.494;7.608;2022-12-18T14:25:20;0.20;;;0.20;;
20679;SDS011;10499;47.494;7.608;2022-12-18T14:30:32;0.20;;;0.20;;
20679;SDS011;10499;47.494;7.608;2022-12-18T14:35:30;0.20;;;0.20;;
20679;SDS011;10499;47.494;7.608;2022-12-18T14:40:44;0.20;;;0.20;;
20679;SDS011;10499;47.494;7.608;2022-12-18T14:43:10;0.20;;;0.20;;
20679;SDS011;10499;47.494;7.608;2022-12-18T14:45:36;0.30;;;0.30;;
20679;SDS011;10499;47.494;7.608;2022-12-18T14:48:46;0.20;;;0.20;;
20679;SDS011;10499;47.494;7.608;2022-12-18T14:53:39;0.20;;;0.20;;
20679;SDS011;10499;47.494;7.608;2022-12-18T14:56:15;0.30;;;0.30;;
20679;SDS011;10499;47.494;7.608;2022-12-18T14:58:45;0.30;;;0.30;;
20679;SDS011;10499;47.494;7.608;2022-12-18T15:01:24;0.20;;;0.20;;
20679;SDS011;10499;47.494;7.608;2022-12-18T15:03:50;0.20;;;0.20;;
20679;SDS011;10499;47.494;7.608;2022-12-18T15:06:25;0.30;;;0.30;;
20679;SDS011;10499;47.494;7.608;2022-12-18T15:08:55;0.30;;;0.30;;
20679;SDS011;10499;47.494;7.608;2022-12-18T15:14:20;0.30;;;0.30;;
20679;SDS011;10499;47.494;7.608;2022-12-18T15:17:14;0.30;;;0.30;;
20679;SDS011;10499;47.494;7.608;2022-12-18T15:19:48;0.30;;;0.30;;
20679;SDS011;10499;47.494;7.608;2022-12-18T15:24:51;0.30;;;0.30;;
20679;SDS011;10499;47.494;7.608;2022-12-18T15:27:20;0.30;;;0.30;;
20679;SDS011;10499;47.494;7.608;2022-12-18T15:30:01;0.30;;;0.30;;
20679;SDS011;10499;47.494;7.608;2022-12-18T15:32:32;0.30;;;0.30;;
20679;SDS011;10499;47.494;7.608;2022-12-18T15:35:03;0.30;;;0.30;;
20679;SDS011;10499;47.494;7.608;2022-12-18T15:37:35;0.30;;;0.30;;
20679;SDS011;10499;47.494;7.608;2022-12-18T15:40:05;0.30;;;0.30;;
20679;SDS011;10499;47.494;7.608;2022-12-18T15:42:32;0.30;;;0.30;;
20679;SDS011;10499;47.494;7.608;2022-12-18T15:45:16;0.30;;;0.30;;
20679;SDS011;10499;47.494;7.608;2022-12-18T15:47:43;0.30;;;0.30;;
20679;SDS011;10499;47.494;7.608;2022-12-18T15:50:09;0.30;;;0.30;;
20679;SDS011;10499;47.494;7.608;2022-12-18T15:52:42;0.30;;;0.30;;
20679;SDS011;10499;47.494;7.608;2022-12-18T15:55:13;0.30;;;0.30;;
20679;SDS011;10499;47.494;7.608;2022-12-18T15:58:02;0.30;;;0.30;;
20679;SDS011;10499;47.494;7.608;2022-12-18T16:00:29;0.30;;;0.30;;
20679;SDS011;10499;47.494;7.608;2022-12-18T16:02:55;0.30;;;0.30;;
20679;SDS011;10499;47.494;7.608;2022-12-18T16:05:24;0.30;;;0.30;;
20679;SDS011;10499;47.494;7.608;2022-12-18T16:07:50;0.30;;;0.30;;
20679;SDS011;10499;47.494;7.608;2022-12-18T16:10:16;0.30;;;0.30;;
20679;SDS011;10499;47.494;7.608;2022-12-18T16:12:42;0.30;;;0.30;;
20679;SDS011;10499;47.494;7.608;2022-12-18T16:15:09;0.30;;;0.30;;
20679;SDS011;10499;47.494;7.608;2022-12-18T16:17:38;0.30;;;0.30;;
20679;SDS011;10499;47.494;7.608;2022-12-18T16:20:12;0.30;;;0.30;;
20679;SDS011;10499;47.494;7.608;2022-12-18T16:22:42;0.30;;;0.30;;
20679;SDS011;10499;47.494;7.608;2022-12-18T16:25:23;0.33;;;0.33;;
20679;SDS011;10499;47.494;7.608;2022-12-18T16:27:50;0.30;;;0.30;;
20679;SDS011;10499;47.494;7.608;2022-12-18T16:30:19;0.30;;;0.30;;
20679;SDS011;10499;47.494;7.608;2022-12-18T16:32:46;0.30;;;0.30;;
20679;SDS011;10499;47.494;7.608;2022-12-18T16:35:13;0.30;;;0.30;;
20679;SDS011;10499;47.494;7.608;2022-12-18T16:37:40;0.30;;;0.30;;
20679;SDS011;10499;47.494;7.608;2022-12-18T16:40:07;0.30;;;0.30;;
20679;SDS011;10499;47.494;7.608;2022-12-18T16:42:35;0.30;;;0.30;;
20679;SDS011;10499;47.494;7.608;2022-12-18T16:45:02;0.30;;;0.30;;
20679;SDS011;10499;47.494;7.608;2022-12-18T16:47:28;0.30;;;0.30;;
20679;SDS011;10499;47.494;7.608;2022-12-18T16:49:54;0.30;;;0.30;;
20679;SDS011;10499;47.494;7.608;2022-12-18T16:52:20;0.30;;;0.30;;
20679;SDS011;10499;47.494;7.608;2022-12-18T16:54:46;0.30;;;0.30;;
20679;SDS011;10499;47.494;7.608;2022-12-18T16:57:13;0.40;;;0.40;;
20679;SDS011;10499;47.494;7.608;2022-12-18T16:59:40;0.30;;;0.30;;
20679;SDS011;10499;47.494;7.608;2022-12-18T17:02:20;0.30;;;0.30;;
20679;SDS011;10499;47.494;7.608;2022-12-18T17:04:47;0.30;;;0.30;;
20679;SDS011;10499;47.494;7.608;2022-12-18T17:07:14;0.30;;;0.30;;